createdAt,value
2018-04-28T00:04:45.962Z,59.00
2018-04-28T00:09:49.214Z,59.40
2018-04-28T00:14:53.240Z,56.90
2018-04-28T00:19:57.074Z,57.10
2018-04-28T00:25:01.087Z,57.10
2018-04-28T00:30:06.927Z,55.30
2018-04-28T00:35:14.613Z,55.30
2018-04-28T00:40:42.474Z,55.60
2018-04-28T00:46:06.520Z,55.40
2018-04-28T00:51:10.619Z,55.10
2018-04-28T00:56:26.547Z,55.20
2018-04-28T01:01:35.760Z,55.20
2018-04-28T01:06:39.012Z,55.70
2018-04-28T01:11:43.171Z,56.70
2018-04-28T01:16:56.002Z,55.50
2018-04-28T01:22:05.771Z,56.60
2018-04-28T01:32:55.513Z,56.50
2018-04-28T01:38:05.015Z,56.30
2018-04-28T01:43:27.975Z,56.20
2018-04-28T01:48:36.170Z,57.70
2018-04-28T01:54:00.414Z,58.00
2018-04-28T01:59:07.327Z,57.30
2018-04-28T02:04:15.858Z,58.50
2018-04-28T02:09:22.024Z,58.50
2018-04-28T02:14:36.955Z,58.70
2018-04-28T02:19:45.871Z,57.70
2018-04-28T02:25:01.781Z,57.30
2018-04-28T02:30:07.837Z,57.40
2018-04-28T02:35:33.802Z,57.70
2018-04-28T02:40:38.635Z,58.10
2018-04-28T02:46:08.551Z,57.70
2018-04-28T02:57:06.595Z,58.00
2018-04-28T03:02:10.600Z,58.10
2018-04-28T03:12:48.057Z,57.30
2018-04-28T03:17:53.096Z,57.90
2018-04-28T03:22:57.112Z,56.80
2018-04-28T03:28:01.135Z,56.60
2018-04-28T03:33:05.954Z,57.30
2018-04-28T03:38:19.900Z,57.30
2018-04-28T03:48:51.111Z,56.60
2018-04-28T03:54:05.427Z,56.00
2018-04-28T03:59:20.515Z,57.60
2018-04-28T04:04:35.656Z,58.20
2018-04-28T04:10:14.404Z,58.30
2018-04-28T04:15:33.360Z,56.60
2018-04-28T04:20:45.387Z,56.50
2018-04-28T04:25:56.620Z,57.60
2018-04-28T04:31:07.402Z,57.70
2018-04-28T04:36:21.361Z,57.70
2018-04-28T04:47:17.401Z,56.40
2018-04-28T04:52:32.624Z,56.00
2018-04-28T04:58:00.330Z,56.60
2018-04-28T05:03:30.404Z,56.50
2018-04-28T05:08:55.265Z,56.20
2018-04-28T05:14:16.023Z,56.40
2018-04-28T05:25:08.997Z,56.40
2018-04-28T05:30:24.300Z,57.20
2018-04-28T05:35:50.361Z,55.60
2018-04-28T05:41:18.992Z,55.60
2018-04-28T05:46:22.950Z,55.80
2018-04-28T05:51:50.077Z,55.60
2018-04-28T05:57:09.137Z,55.00
2018-04-28T06:02:13.929Z,54.50
2018-04-28T06:07:25.897Z,53.60
2018-04-28T06:12:34.936Z,55.20
2018-04-28T06:17:49.991Z,55.60
2018-04-28T06:22:53.263Z,55.70
2018-04-28T06:27:56.595Z,55.20
2018-04-28T06:33:03.441Z,55.30
2018-04-28T06:38:07.344Z,55.00
2018-04-28T06:43:10.689Z,53.80
2018-04-28T06:48:13.938Z,53.50
2018-04-28T06:53:17.248Z,54.00
2018-04-28T06:58:20.509Z,53.00
2018-04-28T07:03:23.926Z,52.40
2018-04-28T07:08:27.210Z,52.80
2018-04-28T07:13:30.452Z,53.70
2018-04-28T07:18:34.504Z,52.70
2018-04-28T07:23:37.771Z,52.60
2018-04-28T07:28:41.115Z,51.70
2018-04-28T07:33:44.288Z,49.30
2018-04-28T07:38:47.550Z,49.60
2018-04-28T07:43:50.828Z,49.30
2018-04-28T07:48:54.108Z,48.80
2018-04-28T07:53:57.358Z,47.90
2018-04-28T07:59:00.667Z,48.30
2018-04-28T08:04:04.115Z,47.40
2018-04-28T08:09:08.223Z,49.10
2018-04-28T08:14:11.685Z,49.00
2018-04-28T08:19:15.007Z,50.80
2018-04-28T08:24:18.299Z,49.50
2018-04-28T08:29:21.554Z,52.10
2018-04-28T08:34:24.811Z,51.30
2018-04-28T08:39:28.091Z,48.80
2018-04-28T08:44:31.435Z,48.60
2018-04-28T08:49:35.015Z,50.00
2018-04-28T08:54:38.258Z,50.80
2018-04-28T08:59:54.116Z,48.40
2018-04-28T09:04:57.381Z,48.30
2018-04-28T09:10:01.412Z,46.00
2018-04-28T09:15:04.664Z,45.90
2018-04-28T09:20:07.920Z,48.20
2018-04-28T09:25:11.947Z,49.30
2018-04-28T09:30:15.198Z,49.30
2018-04-28T09:35:18.442Z,47.60
2018-04-28T09:40:21.711Z,47.50
2018-04-28T09:45:25.812Z,46.90
2018-04-28T09:50:29.057Z,46.90
2018-04-28T09:55:33.089Z,44.60
2018-04-28T10:00:56.783Z,44.60
2018-04-28T10:06:00.103Z,44.00
2018-04-28T10:11:03.323Z,44.70
2018-04-28T10:16:06.596Z,43.70
2018-04-28T10:21:09.869Z,46.10
2018-04-28T10:26:13.119Z,47.60
2018-04-28T10:31:16.396Z,45.70
2018-04-28T10:36:19.641Z,45.80
2018-04-28T10:41:22.891Z,46.30
2018-04-28T10:46:27.394Z,45.10
2018-04-28T10:51:30.611Z,44.10
2018-04-28T10:56:33.876Z,42.80
2018-04-28T11:01:37.135Z,46.00
2018-04-28T11:06:41.166Z,40.70
2018-04-28T11:11:45.208Z,42.50
2018-04-28T11:16:48.471Z,42.30
2018-04-28T11:21:51.748Z,42.90
2018-04-28T11:26:55.010Z,42.00
2018-04-28T11:31:58.254Z,40.20
2018-04-28T11:37:01.507Z,40.90
2018-04-28T11:42:04.794Z,40.70
2018-04-28T11:47:08.061Z,37.60
2018-04-28T11:52:11.335Z,33.50
2018-04-28T11:57:14.596Z,35.70
2018-04-28T12:02:17.857Z,36.50
2018-04-28T12:07:21.107Z,36.60
2018-04-28T12:12:26.020Z,36.90
2018-04-28T12:17:30.051Z,38.60
2018-04-28T12:22:33.335Z,38.60
2018-04-28T12:27:36.555Z,36.30
2018-04-28T12:32:39.831Z,34.80
2018-04-28T12:37:43.099Z,34.20
2018-04-28T12:42:46.385Z,32.40
2018-04-28T12:47:49.732Z,35.60
2018-04-28T12:52:53.076Z,34.40
2018-04-28T12:57:56.326Z,38.00
2018-04-28T13:02:59.587Z,35.30
2018-04-28T13:08:02.864Z,37.00
2018-04-28T13:13:06.231Z,40.50
2018-04-28T13:18:09.488Z,39.50
2018-04-28T13:23:12.767Z,37.80
2018-04-28T13:28:16.904Z,39.20
2018-04-28T13:33:23.928Z,40.00
2018-04-28T13:38:27.189Z,39.90
2018-04-28T13:43:30.460Z,41.50
2018-04-28T13:48:33.819Z,41.30
2018-04-28T13:53:37.131Z,40.40
2018-04-28T13:58:41.159Z,38.30
2018-04-28T14:03:44.472Z,38.20
2018-04-28T14:08:47.748Z,37.20
2018-04-28T14:13:51.033Z,37.60
2018-04-28T14:18:54.288Z,38.00
2018-04-28T14:23:58.323Z,37.30
2018-04-28T14:29:01.613Z,37.30
2018-04-28T14:34:04.891Z,33.80
2018-04-28T14:39:08.162Z,36.10
2018-04-28T14:44:11.436Z,37.90
2018-04-28T14:49:15.484Z,37.30
2018-04-28T14:54:18.722Z,37.20
2018-04-28T14:59:22.018Z,39.10
2018-04-28T15:04:25.259Z,37.00
2018-04-28T15:09:28.520Z,38.60
2018-04-28T15:14:31.807Z,40.10
2018-04-28T15:19:35.060Z,39.20
2018-04-28T15:24:38.323Z,38.30
2018-04-28T15:29:41.581Z,36.70
2018-04-28T15:34:44.847Z,38.20
2018-04-28T15:39:48.879Z,40.10
2018-04-28T15:44:52.159Z,40.00
2018-04-28T15:49:55.499Z,39.20
2018-04-28T15:54:58.688Z,39.20
2018-04-28T16:00:01.956Z,37.90
2018-04-28T16:05:06.095Z,38.30
2018-04-28T16:10:09.358Z,38.30
2018-04-28T16:15:12.615Z,39.10
2018-04-28T16:20:15.862Z,39.50
2018-04-28T16:25:19.151Z,39.50
2018-04-28T16:30:22.390Z,39.80
2018-04-28T16:35:25.649Z,39.30
2018-04-28T16:40:28.941Z,39.90
2018-04-28T16:45:32.184Z,41.10
2018-04-28T16:50:35.629Z,42.00
2018-04-28T16:55:39.932Z,41.00
2018-04-28T17:00:43.314Z,40.50
2018-04-28T17:05:48.208Z,42.50
2018-04-28T17:10:52.265Z,42.50
2018-04-28T17:15:55.587Z,40.70
2018-04-28T17:20:58.855Z,42.10
2018-04-28T17:26:02.106Z,42.60
2018-04-28T17:31:05.405Z,42.20
2018-04-28T17:36:08.691Z,43.40
2018-04-28T17:41:11.973Z,44.00
2018-04-28T17:46:16.744Z,42.90
2018-04-28T17:51:20.028Z,42.70
2018-04-28T17:56:23.278Z,43.20
2018-04-28T18:01:26.582Z,44.00
2018-04-28T18:06:29.842Z,46.10
2018-04-28T18:11:33.111Z,40.00
2018-04-28T18:16:36.396Z,38.80
2018-04-28T18:21:39.666Z,41.10
2018-04-28T18:26:43.717Z,41.10
2018-04-28T18:31:46.999Z,40.90
2018-04-28T18:36:50.273Z,38.80
2018-04-28T18:41:53.548Z,40.40
2018-04-28T18:46:56.827Z,40.50
2018-04-28T18:52:00.094Z,42.50
2018-04-28T18:57:03.355Z,42.10
2018-04-28T19:02:06.631Z,39.20
2018-04-28T19:07:09.906Z,40.70
2018-04-28T19:12:13.159Z,43.50
2018-04-28T19:17:16.409Z,43.40
2018-04-28T19:22:19.714Z,41.60
2018-04-28T19:27:22.996Z,43.50
2018-04-28T19:32:26.259Z,44.20
2018-04-28T19:37:29.564Z,44.60
2018-04-28T19:42:32.860Z,44.80
2018-04-28T19:47:36.145Z,45.50
2018-04-28T19:52:39.495Z,46.00
2018-04-28T19:57:43.559Z,46.30
2018-04-28T20:02:46.825Z,47.30
2018-04-28T20:07:50.276Z,47.40
2018-04-28T20:12:53.556Z,47.70
2018-04-28T20:17:56.848Z,48.20
2018-04-28T20:23:11.851Z,48.70
2018-04-28T20:28:15.150Z,49.00
2018-04-28T20:33:18.414Z,49.60
2018-04-28T20:38:22.491Z,50.00
2018-04-28T20:43:26.543Z,50.00
2018-04-28T20:48:29.816Z,50.50
2018-04-28T20:53:33.123Z,51.20
2018-04-28T20:58:36.386Z,51.40
2018-04-28T21:03:40.565Z,50.20
2018-04-28T21:08:43.823Z,50.10
2018-04-28T21:13:47.084Z,47.60
2018-04-28T21:18:50.396Z,48.70
2018-04-28T21:23:53.596Z,50.70
2018-04-28T21:28:56.869Z,50.70
2018-04-28T21:34:00.911Z,51.00
2018-04-28T21:39:04.983Z,51.70
2018-04-28T21:44:08.252Z,50.30
2018-04-28T21:49:11.526Z,51.40
2018-04-28T21:54:14.859Z,51.50
2018-04-28T21:59:18.156Z,51.70
2018-04-28T22:04:21.427Z,53.00
2018-04-28T22:09:24.711Z,53.90
2018-04-28T22:14:27.975Z,54.50
2018-04-28T22:19:31.244Z,54.10
2018-04-28T22:24:34.503Z,55.30
2018-04-28T22:29:38.527Z,55.90
2018-04-28T22:34:41.796Z,55.80
2018-04-28T22:39:45.058Z,57.40
2018-04-28T22:44:48.967Z,57.60
2018-04-28T22:49:52.988Z,54.50
2018-04-28T22:54:56.262Z,54.50
2018-04-28T22:59:59.519Z,51.80
2018-04-28T23:05:02.811Z,51.00
2018-04-28T23:10:06.043Z,49.80
2018-04-28T23:15:09.464Z,49.60
2018-04-28T23:20:12.810Z,52.50
2018-04-28T23:25:16.086Z,56.90
2018-04-28T23:30:19.338Z,59.20
2018-04-28T23:35:23.459Z,53.90
2018-04-28T23:40:26.747Z,53.90
2018-04-28T23:50:42.451Z,57.40
2018-04-28T23:55:45.740Z,60.90
